INFORMACIÓN METAR y TAF
METAR FOR LEBB
ADDS - METARS form results

(0534 UTC 26 May 2019)
Data provider http://aviationweather.gov/metar/data/
 
METAR text: LEBB 260530Z VRB02KT 3000 -DZ BKN005 BKN010 BKN025 13/13 Q1024 TEMPO 6000 NSW BKN010
Conditions at: LEBB (BILBAO/SONDICA , ES) observed 0530 UTC 26 May 2019
Temperature: 13.0°C (55°F)
Dewpoint: 13.0°C (55°F) [RH = 100%]
Pressure (altimeter): 30.24 inches Hg (1024.0 mb)
Winds: variable direction winds at 2 MPH (2 knots; 1.0 m/s)
Visibility: 1.86 miles (2.99 km)
Ceiling: 500 feet AGL
Clouds: broken clouds at 500 feet AGL
broken clouds at 1000 feet AGL
broken clouds at 2500 feet AGL
Weather: -DZ  (light drizzle)

METAR text: LEBB 260521Z 25003KT 210V290 4000 -DZ BKN007 BKN015 BKN025 13/13 Q1024 TEMPO 6000 NSW BKN010
Conditions at: LEBB (BILBAO/SONDICA , ES) observed 0521 UTC 26 May 2019
Temperature: 13.0°C (55°F)
Dewpoint: 13.0°C (55°F) [RH = 100%]
Pressure (altimeter): 30.24 inches Hg (1024.0 mb)
Winds: from the WSW (250 degrees) at 3 MPH (3 knots; 1.5 m/s)
Visibility: 2.49 miles (4.01 km)
Ceiling: 700 feet AGL
Clouds: broken clouds at 700 feet AGL
broken clouds at 1500 feet AGL
broken clouds at 2500 feet AGL
Weather: -DZ  (light drizzle)

METAR text: LEBB 260509Z VRB02KT 2500 -DZ BKN008 BKN012 BKN018 13/13 Q1023 TEMPO BKN005
Conditions at: LEBB (BILBAO/SONDICA , ES) observed 0509 UTC 26 May 2019
Temperature: 13.0°C (55°F)
Dewpoint: 13.0°C (55°F) [RH = 100%]
Pressure (altimeter): 30.21 inches Hg (1023.0 mb)
Winds: variable direction winds at 2 MPH (2 knots; 1.0 m/s)
Visibility: 1.55 miles (2.49 km)
Ceiling: 800 feet AGL
Clouds: broken clouds at 800 feet AGL
broken clouds at 1200 feet AGL
broken clouds at 1800 feet AGL
Weather: -DZ  (light drizzle)

METAR text: LEBB 260500Z VRB02KT 3000 -DZ SCT010 BKN012 BKN018 13/13 Q1023 TEMPO BKN008
Conditions at: LEBB (BILBAO/SONDICA , ES) observed 0500 UTC 26 May 2019
Temperature: 13.0°C (55°F)
Dewpoint: 13.0°C (55°F) [RH = 100%]
Pressure (altimeter): 30.21 inches Hg (1023.0 mb)
Winds: variable direction winds at 2 MPH (2 knots; 1.0 m/s)
Visibility: 1.86 miles (2.99 km)
Ceiling: 1200 feet AGL
Clouds: scattered clouds at 1000 feet AGL
broken clouds at 1200 feet AGL
broken clouds at 1800 feet AGL
Weather: -DZ  (light drizzle)

Forecast for: LEBB (BILBAO/SONDICA , ES)
Text: TAF LEBB 260500Z 2606/2706 28007KT 9999 SCT010 BKN020 TX16/2615Z TN12/2706Z
Forecast period: 0600 UTC 26 May 2019 to 0600 UTC 27 May 2019
Forecast type: FROM: standard forecast or significant change
Winds: from the W (280 degrees) at 8 MPH (7 knots; 3.6 m/s)
Visibility: 6 or more miles 10+ km)
Ceiling: 2000 feet AGL
Clouds: scattered clouds at 1000 feet AGL
broken clouds at 2000 feet AGL
Weather: no significant weather forecast for this period
Text: TEMPO 2606/2614 BKN010
Forecast period: 0600 to 1400 UTC 26 May 2019
Forecast type: TEMPORARY: The following changes expected for less than half the time period
Visibility: missing
Ceiling: 1000 feet AGL
Clouds: broken clouds at 1000 feet AGL
Weather: no significant weather forecast for this period
Text: TEMPO 2606/2610 3000 -RADZ BKN005
Forecast period: 0600 to 1000 UTC 26 May 2019
Forecast type: TEMPORARY: The following changes expected for less than half the time period
Visibility: 1.86 miles (2.99 km)
Ceiling: 500 feet AGL
Clouds: broken clouds at 500 feet AGL
Weather: -RA -DZ  (light rain, light drizzle)
Text: PROB30
Forecast period: 1300 to 1800 UTC 26 May 2019
Forecast type: TEMPORARY: The following changes expected for less than half the time period
Winds: from the NNW (340 degrees) at 12 MPH (10 knots; 5.1 m/s)
Visibility: 2.80 miles (4.51 km)
Ceiling: 1400 feet AGL
Clouds: broken clouds at 1400 feet AGL
Weather: DZ BR  (moderate drizzle, mist)

 MAPA DE AEROPUERTO

 INFORMACIÓN DE PISTA
Pista 10 Longitud 6562 ft Ancho 148 ft
Elevación 116 ft Umbral desplazado 0 ft Rumbo de pista 97
Pista 28 Longitud 6562 ft Ancho 148 ft
Elevación 129 ft Umbral desplazado 0 ft Rumbo de pista 277
Pista 12 Longitud 8530 ft Ancho 148 ft
Elevación 119 ft Umbral desplazado 0 ft Rumbo de pista 117
Pista 30 Longitud 8530 ft Ancho 148 ft
Elevación 128 ft Umbral desplazado 1509 ft Rumbo de pista 297

 FRECUANCIAS DEL AEROPUERTO
Tipo APP Nombre APP Frecuencia 120.7 MHZ
Tipo ATIS Nombre ATIS Frecuencia 118.825 MHZ
Tipo GND Nombre GND Frecuencia 121.7 MHZ
Tipo TWR Nombre TWR Frecuencia 118.5 MHZ

 RADIO AYUDAS DEL AEROPUERTO
Tipo VOR-DME Nombre Bilbao Frecuencia 115900 KHZ




Powered by Virtual Airlines Manager